sensor_id;sensor_type;location;lat;lon;timestamp;P1;durP1;ratioP1;P2;durP2;ratioP2
55732;SDS011;41637;52.364;9.910;2023-03-14T00:00:16;4.10;;;1.10;;
55732;SDS011;41637;52.364;9.910;2023-03-14T00:02:42;4.10;;;1.00;;
55732;SDS011;41637;52.364;9.910;2023-03-14T00:05:09;3.10;;;1.00;;
55732;SDS011;41637;52.364;9.910;2023-03-14T00:07:36;3.20;;;0.90;;
55732;SDS011;41637;52.364;9.910;2023-03-14T00:10:05;3.40;;;1.20;;
55732;SDS011;41637;52.364;9.910;2023-03-14T00:12:38;3.00;;;1.10;;
55732;SDS011;41637;52.364;9.910;2023-03-14T00:15:06;3.20;;;1.10;;
55732;SDS011;41637;52.364;9.910;2023-03-14T00:17:33;4.00;;;1.30;;
55732;SDS011;41637;52.364;9.910;2023-03-14T00:20:01;3.10;;;1.20;;
55732;SDS011;41637;52.364;9.910;2023-03-14T00:22:35;3.00;;;0.90;;
55732;SDS011;41637;52.364;9.910;2023-03-14T00:25:02;3.40;;;0.90;;
55732;SDS011;41637;52.364;9.910;2023-03-14T00:27:30;3.00;;;1.00;;
55732;SDS011;41637;52.364;9.910;2023-03-14T00:29:57;2.60;;;1.00;;
55732;SDS011;41637;52.364;9.910;2023-03-14T00:32:23;4.00;;;1.10;;
55732;SDS011;41637;52.364;9.910;2023-03-14T00:34:50;2.50;;;1.00;;
55732;SDS011;41637;52.364;9.910;2023-03-14T00:37:17;3.40;;;1.20;;
55732;SDS011;41637;52.364;9.910;2023-03-14T00:39:43;3.90;;;1.10;;
55732;SDS011;41637;52.364;9.910;2023-03-14T00:42:12;3.80;;;1.10;;
55732;SDS011;41637;52.364;9.910;2023-03-14T00:44:38;2.40;;;0.90;;
55732;SDS011;41637;52.364;9.910;2023-03-14T00:47:05;3.40;;;1.00;;
55732;SDS011;41637;52.364;9.910;2023-03-14T00:49:32;2.10;;;1.10;;
55732;SDS011;41637;52.364;9.910;2023-03-14T00:51:58;3.30;;;1.40;;
55732;SDS011;41637;52.364;9.910;2023-03-14T00:54:25;2.80;;;1.00;;
55732;SDS011;41637;52.364;9.910;2023-03-14T00:56:51;1.70;;;0.80;;
55732;SDS011;41637;52.364;9.910;2023-03-14T00:59:21;2.80;;;1.10;;
55732;SDS011;41637;52.364;9.910;2023-03-14T01:01:47;2.80;;;1.00;;
55732;SDS011;41637;52.364;9.910;2023-03-14T01:04:14;2.50;;;1.00;;
55732;SDS011;41637;52.364;9.910;2023-03-14T01:06:40;3.00;;;1.10;;
55732;SDS011;41637;52.364;9.910;2023-03-14T01:09:07;4.40;;;1.30;;
55732;SDS011;41637;52.364;9.910;2023-03-14T01:11:34;2.60;;;1.00;;
55732;SDS011;41637;52.364;9.910;2023-03-14T01:14:01;3.50;;;1.20;;
55732;SDS011;41637;52.364;9.910;2023-03-14T01:16:29;3.20;;;0.90;;
55732;SDS011;41637;52.364;9.910;2023-03-14T01:18:58;3.70;;;1.10;;
55732;SDS011;41637;52.364;9.910;2023-03-14T01:21:26;3.20;;;1.20;;
55732;SDS011;41637;52.364;9.910;2023-03-14T01:23:55;4.50;;;1.10;;
55732;SDS011;41637;52.364;9.910;2023-03-14T01:26:26;4.90;;;1.50;;
55732;SDS011;41637;52.364;9.910;2023-03-14T01:28:55;4.30;;;1.20;;
55732;SDS011;41637;52.364;9.910;2023-03-14T01:31:22;3.10;;;1.20;;
55732;SDS011;41637;52.364;9.910;2023-03-14T01:33:50;3.20;;;1.00;;
55732;SDS011;41637;52.364;9.910;2023-03-14T01:36:17;3.60;;;1.20;;
55732;SDS011;41637;52.364;9.910;2023-03-14T01:38:47;5.30;;;1.30;;
55732;SDS011;41637;52.364;9.910;2023-03-14T01:41:15;3.30;;;1.00;;
55732;SDS011;41637;52.364;9.910;2023-03-14T01:43:44;4.10;;;1.20;;
55732;SDS011;41637;52.364;9.910;2023-03-14T01:46:17;3.30;;;1.10;;
55732;SDS011;41637;52.364;9.910;2023-03-14T01:48:47;4.10;;;1.20;;
55732;SDS011;41637;52.364;9.910;2023-03-14T01:54:05;2.90;;;1.10;;
55732;SDS011;41637;52.364;9.910;2023-03-14T01:56:36;4.30;;;1.40;;
55732;SDS011;41637;52.364;9.910;2023-03-14T01:59:04;3.30;;;1.20;;
55732;SDS011;41637;52.364;9.910;2023-03-14T02:01:34;3.80;;;1.10;;
55732;SDS011;41637;52.364;9.910;2023-03-14T02:04:01;2.80;;;1.10;;
55732;SDS011;41637;52.364;9.910;2023-03-14T02:09:23;3.40;;;1.10;;
55732;SDS011;41637;52.364;9.910;2023-03-14T02:11:50;3.00;;;1.00;;
55732;SDS011;41637;52.364;9.910;2023-03-14T02:14:24;4.10;;;1.00;;
55732;SDS011;41637;52.364;9.910;2023-03-14T02:16:54;3.90;;;1.20;;
55732;SDS011;41637;52.364;9.910;2023-03-14T02:19:25;3.10;;;1.00;;
55732;SDS011;41637;52.364;9.910;2023-03-14T02:22:05;2.40;;;0.80;;
55732;SDS011;41637;52.364;9.910;2023-03-14T02:27:34;1.90;;;0.70;;
55732;SDS011;41637;52.364;9.910;2023-03-14T02:30:02;2.90;;;0.80;;
55732;SDS011;41637;52.364;9.910;2023-03-14T02:32:30;3.10;;;1.10;;
55732;SDS011;41637;52.364;9.910;2023-03-14T02:34:59;3.10;;;0.90;;
55732;SDS011;41637;52.364;9.910;2023-03-14T02:37:39;4.30;;;0.80;;
55732;SDS011;41637;52.364;9.910;2023-03-14T02:40:09;4.40;;;0.90;;
55732;SDS011;41637;52.364;9.910;2023-03-14T02:42:36;4.30;;;1.10;;
55732;SDS011;41637;52.364;9.910;2023-03-14T02:47:36;4.20;;;1.00;;
55732;SDS011;41637;52.364;9.910;2023-03-14T02:50:15;3.10;;;1.00;;
55732;SDS011;41637;52.364;9.910;2023-03-14T02:52:46;3.70;;;1.10;;
55732;SDS011;41637;52.364;9.910;2023-03-14T02:55:13;4.60;;;1.10;;
55732;SDS011;41637;52.364;9.910;2023-03-14T02:57:39;3.30;;;1.00;;
55732;SDS011;41637;52.364;9.910;2023-03-14T03:00:06;3.50;;;0.90;;
55732;SDS011;41637;52.364;9.910;2023-03-14T03:02:35;4.30;;;0.90;;
55732;SDS011;41637;52.364;9.910;2023-03-14T03:05:01;3.80;;;1.00;;
55732;SDS011;41637;52.364;9.910;2023-03-14T03:07:28;4.40;;;1.30;;
55732;SDS011;41637;52.364;9.910;2023-03-14T03:09:54;4.50;;;0.90;;
55732;SDS011;41637;52.364;9.910;2023-03-14T03:12:21;3.00;;;0.90;;
55732;SDS011;41637;52.364;9.910;2023-03-14T03:14:48;3.90;;;1.10;;
55732;SDS011;41637;52.364;9.910;2023-03-14T03:17:14;3.50;;;0.80;;
55732;SDS011;41637;52.364;9.910;2023-03-14T03:19:42;3.50;;;0.90;;
55732;SDS011;41637;52.364;9.910;2023-03-14T03:22:08;2.90;;;0.80;;
55732;SDS011;41637;52.364;9.910;2023-03-14T03:24:35;3.90;;;1.20;;
55732;SDS011;41637;52.364;9.910;2023-03-14T03:27:02;3.80;;;0.80;;
55732;SDS011;41637;52.364;9.910;2023-03-14T03:29:28;2.40;;;0.80;;
55732;SDS011;41637;52.364;9.910;2023-03-14T03:31:58;1.90;;;0.70;;
55732;SDS011;41637;52.364;9.910;2023-03-14T03:34:25;2.20;;;0.70;;
55732;SDS011;41637;52.364;9.910;2023-03-14T03:36:55;3.10;;;0.90;;
55732;SDS011;41637;52.364;9.910;2023-03-14T03:39:22;3.30;;;1.10;;
55732;SDS011;41637;52.364;9.910;2023-03-14T03:41:49;3.50;;;0.90;;
55732;SDS011;41637;52.364;9.910;2023-03-14T03:44:15;2.70;;;1.00;;
55732;SDS011;41637;52.364;9.910;2023-03-14T03:46:45;3.20;;;1.00;;
55732;SDS011;41637;52.364;9.910;2023-03-14T03:49:11;4.00;;;1.00;;
55732;SDS011;41637;52.364;9.910;2023-03-14T03:51:39;3.40;;;0.90;;
55732;SDS011;41637;52.364;9.910;2023-03-14T03:54:06;3.90;;;1.00;;
55732;SDS011;41637;52.364;9.910;2023-03-14T03:56:33;4.20;;;1.10;;
55732;SDS011;41637;52.364;9.910;2023-03-14T03:58:59;3.20;;;1.00;;
55732;SDS011;41637;52.364;9.910;2023-03-14T04:01:26;3.20;;;1.00;;
55732;SDS011;41637;52.364;9.910;2023-03-14T04:03:53;4.80;;;1.10;;
55732;SDS011;41637;52.364;9.910;2023-03-14T04:06:20;4.30;;;1.30;;
55732;SDS011;41637;52.364;9.910;2023-03-14T04:08:47;4.80;;;1.70;;
55732;SDS011;41637;52.364;9.910;2023-03-14T04:11:14;4.80;;;1.00;;
55732;SDS011;41637;52.364;9.910;2023-03-14T04:13:43;5.70;;;1.50;;
55732;SDS011;41637;52.364;9.910;2023-03-14T04:16:14;5.30;;;1.20;;
55732;SDS011;41637;52.364;9.910;2023-03-14T04:18:43;4.20;;;1.30;;
55732;SDS011;41637;52.364;9.910;2023-03-14T04:21:10;4.10;;;0.90;;
55732;SDS011;41637;52.364;9.910;2023-03-14T04:23:37;4.40;;;1.00;;
55732;SDS011;41637;52.364;9.910;2023-03-14T04:26:04;6.00;;;1.00;;
55732;SDS011;41637;52.364;9.910;2023-03-14T04:28:31;3.80;;;0.90;;
55732;SDS011;41637;52.364;9.910;2023-03-14T04:30:58;5.30;;;0.90;;
55732;SDS011;41637;52.364;9.910;2023-03-14T04:33:25;3.00;;;0.90;;
55732;SDS011;41637;52.364;9.910;2023-03-14T04:35:55;5.10;;;1.20;;
55732;SDS011;41637;52.364;9.910;2023-03-14T04:38:22;1.60;;;0.60;;
55732;SDS011;41637;52.364;9.910;2023-03-14T04:40:49;2.90;;;0.60;;
55732;SDS011;41637;52.364;9.910;2023-03-14T04:43:16;2.90;;;0.50;;
55732;SDS011;41637;52.364;9.910;2023-03-14T04:45:43;1.70;;;0.40;;
55732;SDS011;41637;52.364;9.910;2023-03-14T04:48:09;3.00;;;0.70;;
55732;SDS011;41637;52.364;9.910;2023-03-14T04:50:36;2.60;;;0.70;;
55732;SDS011;41637;52.364;9.910;2023-03-14T04:53:03;2.30;;;0.50;;
55732;SDS011;41637;52.364;9.910;2023-03-14T04:55:31;2.50;;;0.60;;
55732;SDS011;41637;52.364;9.910;2023-03-14T04:57:58;2.50;;;0.60;;
55732;SDS011;41637;52.364;9.910;2023-03-14T05:00:25;1.30;;;0.40;;
55732;SDS011;41637;52.364;9.910;2023-03-14T05:02:52;2.50;;;0.40;;
55732;SDS011;41637;52.364;9.910;2023-03-14T05:05:19;2.00;;;0.50;;
55732;SDS011;41637;52.364;9.910;2023-03-14T05:07:46;2.70;;;0.70;;
55732;SDS011;41637;52.364;9.910;2023-03-14T05:10:13;2.90;;;1.00;;
55732;SDS011;41637;52.364;9.910;2023-03-14T05:12:40;2.70;;;1.20;;
55732;SDS011;41637;52.364;9.910;2023-03-14T05:15:07;3.30;;;0.90;;
55732;SDS011;41637;52.364;9.910;2023-03-14T05:17:35;1.60;;;0.70;;
55732;SDS011;41637;52.364;9.910;2023-03-14T05:20:02;3.20;;;0.90;;
55732;SDS011;41637;52.364;9.910;2023-03-14T05:22:34;3.70;;;0.90;;
55732;SDS011;41637;52.364;9.910;2023-03-14T05:25:01;5.40;;;0.70;;
55732;SDS011;41637;52.364;9.910;2023-03-14T05:27:28;2.00;;;0.70;;
55732;SDS011;41637;52.364;9.910;2023-03-14T05:29:55;2.60;;;0.70;;
55732;SDS011;41637;52.364;9.910;2023-03-14T05:32:22;3.30;;;0.60;;
55732;SDS011;41637;52.364;9.910;2023-03-14T05:34:49;3.70;;;1.10;;
55732;SDS011;41637;52.364;9.910;2023-03-14T05:37:16;4.80;;;0.90;;
55732;SDS011;41637;52.364;9.910;2023-03-14T05:39:45;4.50;;;0.80;;
55732;SDS011;41637;52.364;9.910;2023-03-14T05:42:12;4.20;;;0.90;;
55732;SDS011;41637;52.364;9.910;2023-03-14T05:44:39;3.10;;;0.70;;
55732;SDS011;41637;52.364;9.910;2023-03-14T05:47:07;3.30;;;0.90;;
55732;SDS011;41637;52.364;9.910;2023-03-14T05:49:36;4.30;;;0.90;;
55732;SDS011;41637;52.364;9.910;2023-03-14T05:52:03;2.90;;;1.10;;
55732;SDS011;41637;52.364;9.910;2023-03-14T05:54:30;6.40;;;1.10;;
55732;SDS011;41637;52.364;9.910;2023-03-14T05:56:57;4.20;;;1.00;;
55732;SDS011;41637;52.364;9.910;2023-03-14T05:59:24;3.60;;;1.10;;
55732;SDS011;41637;52.364;9.910;2023-03-14T06:01:51;3.90;;;1.10;;
55732;SDS011;41637;52.364;9.910;2023-03-14T06:04:18;5.80;;;1.60;;
55732;SDS011;41637;52.364;9.910;2023-03-14T06:06:47;6.60;;;2.60;;
55732;SDS011;41637;52.364;9.910;2023-03-14T06:09:14;9.10;;;4.10;;
55732;SDS011;41637;52.364;9.910;2023-03-14T06:11:41;6.40;;;1.80;;
55732;SDS011;41637;52.364;9.910;2023-03-14T06:14:08;8.70;;;2.00;;
55732;SDS011;41637;52.364;9.910;2023-03-14T06:16:35;4.90;;;1.30;;
55732;SDS011;41637;52.364;9.910;2023-03-14T06:19:02;5.90;;;1.20;;
55732;SDS011;41637;52.364;9.910;2023-03-14T06:21:29;3.20;;;0.80;;
55732;SDS011;41637;52.364;9.910;2023-03-14T06:23:56;4.50;;;1.20;;
55732;SDS011;41637;52.364;9.910;2023-03-14T06:26:23;5.40;;;1.10;;
55732;SDS011;41637;52.364;9.910;2023-03-14T06:28:50;3.80;;;1.00;;
55732;SDS011;41637;52.364;9.910;2023-03-14T06:31:17;4.30;;;0.90;;
55732;SDS011;41637;52.364;9.910;2023-03-14T06:33:44;3.90;;;1.20;;
55732;SDS011;41637;52.364;9.910;2023-03-14T06:36:10;4.50;;;0.90;;
55732;SDS011;41637;52.364;9.910;2023-03-14T06:38:37;4.40;;;1.10;;
55732;SDS011;41637;52.364;9.910;2023-03-14T06:41:04;3.20;;;1.00;;
55732;SDS011;41637;52.364;9.910;2023-03-14T06:43:32;3.50;;;1.00;;
55732;SDS011;41637;52.364;9.910;2023-03-14T06:45:59;3.80;;;1.00;;
55732;SDS011;41637;52.364;9.910;2023-03-14T06:48:26;2.60;;;0.80;;
55732;SDS011;41637;52.364;9.910;2023-03-14T06:50:53;2.80;;;0.90;;
55732;SDS011;41637;52.364;9.910;2023-03-14T06:53:20;4.10;;;1.10;;
55732;SDS011;41637;52.364;9.910;2023-03-14T06:55:46;3.50;;;1.00;;
55732;SDS011;41637;52.364;9.910;2023-03-14T06:58:13;3.70;;;0.70;;
55732;SDS011;41637;52.364;9.910;2023-03-14T07:00:40;2.00;;;0.70;;
55732;SDS011;41637;52.364;9.910;2023-03-14T07:03:07;2.10;;;0.60;;
55732;SDS011;41637;52.364;9.910;2023-03-14T07:05:38;3.70;;;0.50;;
55732;SDS011;41637;52.364;9.910;2023-03-14T07:08:07;3.40;;;0.80;;
55732;SDS011;41637;52.364;9.910;2023-03-14T07:10:34;3.00;;;0.80;;
55732;SDS011;41637;52.364;9.910;2023-03-14T07:13:02;2.00;;;0.60;;
55732;SDS011;41637;52.364;9.910;2023-03-14T07:15:29;3.10;;;0.60;;
55732;SDS011;41637;52.364;9.910;2023-03-14T07:17:55;2.30;;;0.50;;
55732;SDS011;41637;52.364;9.910;2023-03-14T07:20:22;3.50;;;0.80;;
55732;SDS011;41637;52.364;9.910;2023-03-14T07:22:49;2.60;;;0.80;;
55732;SDS011;41637;52.364;9.910;2023-03-14T07:25:17;2.40;;;0.80;;
55732;SDS011;41637;52.364;9.910;2023-03-14T07:27:44;2.60;;;0.70;;
55732;SDS011;41637;52.364;9.910;2023-03-14T07:30:13;2.60;;;0.70;;
55732;SDS011;41637;52.364;9.910;2023-03-14T07:32:40;1.90;;;0.70;;
55732;SDS011;41637;52.364;9.910;2023-03-14T07:35:07;2.90;;;0.70;;
55732;SDS011;41637;52.364;9.910;2023-03-14T07:37:35;2.70;;;0.70;;
55732;SDS011;41637;52.364;9.910;2023-03-14T07:40:01;1.70;;;0.40;;
55732;SDS011;41637;52.364;9.910;2023-03-14T07:42:31;3.30;;;0.70;;
55732;SDS011;41637;52.364;9.910;2023-03-14T07:44:58;3.70;;;1.20;;
55732;SDS011;41637;52.364;9.910;2023-03-14T07:47:25;4.50;;;1.10;;
55732;SDS011;41637;52.364;9.910;2023-03-14T07:49:52;2.60;;;1.40;;
55732;SDS011;41637;52.364;9.910;2023-03-14T07:52:18;3.90;;;2.00;;
55732;SDS011;41637;52.364;9.910;2023-03-14T07:54:45;4.10;;;1.70;;
55732;SDS011;41637;52.364;9.910;2023-03-14T07:57:12;3.10;;;0.90;;
55732;SDS011;41637;52.364;9.910;2023-03-14T07:59:39;3.00;;;0.60;;
55732;SDS011;41637;52.364;9.910;2023-03-14T08:02:07;2.60;;;0.60;;
55732;SDS011;41637;52.364;9.910;2023-03-14T08:04:38;3.40;;;1.60;;
55732;SDS011;41637;52.364;9.910;2023-03-14T08:07:06;3.00;;;1.00;;
55732;SDS011;41637;52.364;9.910;2023-03-14T08:09:32;4.50;;;1.90;;
55732;SDS011;41637;52.364;9.910;2023-03-14T08:11:59;3.90;;;1.20;;
55732;SDS011;41637;52.364;9.910;2023-03-14T08:14:26;3.70;;;2.10;;
55732;SDS011;41637;52.364;9.910;2023-03-14T08:16:55;3.50;;;1.90;;
55732;SDS011;41637;52.364;9.910;2023-03-14T08:19:22;5.70;;;3.60;;
55732;SDS011;41637;52.364;9.910;2023-03-14T08:21:48;4.00;;;1.50;;
55732;SDS011;41637;52.364;9.910;2023-03-14T08:24:15;1.90;;;0.60;;
55732;SDS011;41637;52.364;9.910;2023-03-14T08:26:42;1.00;;;0.50;;
55732;SDS011;41637;52.364;9.910;2023-03-14T08:29:09;1.50;;;0.40;;
55732;SDS011;41637;52.364;9.910;2023-03-14T08:31:36;1.60;;;0.50;;
55732;SDS011;41637;52.364;9.910;2023-03-14T08:34:04;2.10;;;0.60;;
55732;SDS011;41637;52.364;9.910;2023-03-14T08:36:32;1.90;;;0.60;;
55732;SDS011;41637;52.364;9.910;2023-03-14T08:39:00;1.40;;;0.40;;
55732;SDS011;41637;52.364;9.910;2023-03-14T08:41:27;1.00;;;0.40;;
55732;SDS011;41637;52.364;9.910;2023-03-14T08:43:54;1.50;;;0.60;;
55732;SDS011;41637;52.364;9.910;2023-03-14T08:46:21;1.60;;;0.40;;
55732;SDS011;41637;52.364;9.910;2023-03-14T08:48:48;1.20;;;0.40;;
55732;SDS011;41637;52.364;9.910;2023-03-14T08:51:14;1.60;;;0.40;;
55732;SDS011;41637;52.364;9.910;2023-03-14T08:53:41;1.10;;;0.30;;
55732;SDS011;41637;52.364;9.910;2023-03-14T08:56:08;3.20;;;1.30;;
55732;SDS011;41637;52.364;9.910;2023-03-14T08:58:36;2.50;;;0.60;;
55732;SDS011;41637;52.364;9.910;2023-03-14T09:01:07;1.20;;;0.30;;
55732;SDS011;41637;52.364;9.910;2023-03-14T09:03:35;0.80;;;0.30;;
55732;SDS011;41637;52.364;9.910;2023-03-14T09:06:03;1.70;;;0.50;;
55732;SDS011;41637;52.364;9.910;2023-03-14T09:08:31;1.20;;;0.30;;
55732;SDS011;41637;52.364;9.910;2023-03-14T09:10:58;1.40;;;0.40;;
55732;SDS011;41637;52.364;9.910;2023-03-14T09:13:25;1.70;;;0.40;;
55732;SDS011;41637;52.364;9.910;2023-03-14T09:15:52;1.40;;;0.40;;
55732;SDS011;41637;52.364;9.910;2023-03-14T09:18:20;3.00;;;0.50;;
55732;SDS011;41637;52.364;9.910;2023-03-14T09:20:48;2.00;;;0.40;;
55732;SDS011;41637;52.364;9.910;2023-03-14T09:23:15;2.80;;;0.50;;
55732;SDS011;41637;52.364;9.910;2023-03-14T09:25:42;3.10;;;0.70;;
55732;SDS011;41637;52.364;9.910;2023-03-14T09:28:09;2.30;;;0.60;;
55732;SDS011;41637;52.364;9.910;2023-03-14T09:30:36;3.80;;;1.10;;
55732;SDS011;41637;52.364;9.910;2023-03-14T09:33:03;3.70;;;1.40;;
55732;SDS011;41637;52.364;9.910;2023-03-14T09:35:30;4.50;;;1.10;;
55732;SDS011;41637;52.364;9.910;2023-03-14T09:37:56;2.60;;;0.80;;
55732;SDS011;41637;52.364;9.910;2023-03-14T09:40:23;3.60;;;0.90;;
55732;SDS011;41637;52.364;9.910;2023-03-14T09:42:51;1.80;;;0.70;;
55732;SDS011;41637;52.364;9.910;2023-03-14T09:45:23;2.80;;;0.80;;
55732;SDS011;41637;52.364;9.910;2023-03-14T09:47:53;3.20;;;0.90;;
55732;SDS011;41637;52.364;9.910;2023-03-14T09:50:25;4.30;;;0.90;;
55732;SDS011;41637;52.364;9.910;2023-03-14T09:52:56;2.90;;;0.80;;
55732;SDS011;41637;52.364;9.910;2023-03-14T09:55:29;2.50;;;0.80;;
55732;SDS011;41637;52.364;9.910;2023-03-14T09:57:59;3.40;;;0.60;;
55732;SDS011;41637;52.364;9.910;2023-03-14T10:00:30;1.90;;;0.60;;
55732;SDS011;41637;52.364;9.910;2023-03-14T10:05:40;3.10;;;0.70;;
55732;SDS011;41637;52.364;9.910;2023-03-14T10:08:11;4.40;;;1.40;;
55732;SDS011;41637;52.364;9.910;2023-03-14T10:10:38;3.60;;;0.90;;
55732;SDS011;41637;52.364;9.910;2023-03-14T10:15:35;1.30;;;0.70;;
55732;SDS011;41637;52.364;9.910;2023-03-14T10:18:04;1.70;;;0.60;;
55732;SDS011;41637;52.364;9.910;2023-03-14T10:20:39;2.80;;;0.70;;
55732;SDS011;41637;52.364;9.910;2023-03-14T10:25:45;1.60;;;0.50;;
55732;SDS011;41637;52.364;9.910;2023-03-14T10:28:30;1.60;;;0.60;;
55732;SDS011;41637;52.364;9.910;2023-03-14T10:30:59;2.20;;;0.90;;
55732;SDS011;41637;52.364;9.910;2023-03-14T10:33:28;1.30;;;0.40;;
55732;SDS011;41637;52.364;9.910;2023-03-14T10:36:14;1.00;;;0.40;;
55732;SDS011;41637;52.364;9.910;2023-03-14T10:38:46;0.90;;;0.50;;
55732;SDS011;41637;52.364;9.910;2023-03-14T10:41:19;3.30;;;1.50;;
55732;SDS011;41637;52.364;9.910;2023-03-14T10:43:54;2.80;;;1.30;;
55732;SDS011;41637;52.364;9.910;2023-03-14T10:46:24;1.60;;;0.60;;
55732;SDS011;41637;52.364;9.910;2023-03-14T10:48:53;3.80;;;1.70;;
55732;SDS011;41637;52.364;9.910;2023-03-14T10:51:27;1.50;;;0.50;;
55732;SDS011;41637;52.364;9.910;2023-03-14T10:54:00;3.10;;;0.70;;
55732;SDS011;41637;52.364;9.910;2023-03-14T10:56:33;0.70;;;0.40;;
55732;SDS011;41637;52.364;9.910;2023-03-14T10:59:02;1.30;;;0.50;;
55732;SDS011;41637;52.364;9.910;2023-03-14T11:07:16;1.20;;;0.50;;
55732;SDS011;41637;52.364;9.910;2023-03-14T11:10:03;2.60;;;0.60;;
55732;SDS011;41637;52.364;9.910;2023-03-14T11:21:02;3.00;;;1.30;;
55732;SDS011;41637;52.364;9.910;2023-03-14T11:23:38;4.50;;;2.10;;
55732;SDS011;41637;52.364;9.910;2023-03-14T11:28:57;1.30;;;0.70;;
55732;SDS011;41637;52.364;9.910;2023-03-14T11:31:29;2.20;;;0.90;;
55732;SDS011;41637;52.364;9.910;2023-03-14T11:36:51;3.20;;;0.70;;
55732;SDS011;41637;52.364;9.910;2023-03-14T11:39:20;2.10;;;0.50;;
55732;SDS011;41637;52.364;9.910;2023-03-14T11:41:53;1.40;;;0.70;;
55732;SDS011;41637;52.364;9.910;2023-03-14T11:44:32;0.90;;;0.40;;
55732;SDS011;41637;52.364;9.910;2023-03-14T11:47:07;1.90;;;0.60;;
55732;SDS011;41637;52.364;9.910;2023-03-14T11:49:48;2.30;;;0.90;;
55732;SDS011;41637;52.364;9.910;2023-03-14T11:55:21;1.90;;;0.50;;
55732;SDS011;41637;52.364;9.910;2023-03-14T11:57:53;0.90;;;0.40;;
55732;SDS011;41637;52.364;9.910;2023-03-14T12:00:28;2.90;;;0.80;;
55732;SDS011;41637;52.364;9.910;2023-03-14T12:10:55;0.70;;;0.20;;
55732;SDS011;41637;52.364;9.910;2023-03-14T12:13:29;1.40;;;0.30;;
55732;SDS011;41637;52.364;9.910;2023-03-14T12:16:06;1.20;;;0.20;;
55732;SDS011;41637;52.364;9.910;2023-03-14T12:18:44;1.40;;;0.30;;
55732;SDS011;41637;52.364;9.910;2023-03-14T12:21:12;0.50;;;0.20;;
55732;SDS011;41637;52.364;9.910;2023-03-14T12:23:48;0.60;;;0.20;;
55732;SDS011;41637;52.364;9.910;2023-03-14T12:26:21;2.00;;;0.60;;
55732;SDS011;41637;52.364;9.910;2023-03-14T12:34:31;0.40;;;0.10;;
55732;SDS011;41637;52.364;9.910;2023-03-14T12:42:10;1.10;;;0.30;;
55732;SDS011;41637;52.364;9.910;2023-03-14T12:44:41;1.00;;;0.30;;
55732;SDS011;41637;52.364;9.910;2023-03-14T12:49:54;0.90;;;0.30;;
55732;SDS011;41637;52.364;9.910;2023-03-14T12:52:44;1.20;;;0.20;;
55732;SDS011;41637;52.364;9.910;2023-03-14T12:55:34;0.80;;;0.20;;
55732;SDS011;41637;52.364;9.910;2023-03-14T12:58:22;0.30;;;0.10;;
55732;SDS011;41637;52.364;9.910;2023-03-14T13:01:05;1.70;;;0.50;;
55732;SDS011;41637;52.364;9.910;2023-03-14T13:03:54;3.00;;;0.40;;
55732;SDS011;41637;52.364;9.910;2023-03-14T13:11:56;2.30;;;0.60;;
55732;SDS011;41637;52.364;9.910;2023-03-14T13:14:31;3.90;;;0.90;;
55732;SDS011;41637;52.364;9.910;2023-03-14T13:16:59;5.20;;;0.90;;
55732;SDS011;41637;52.364;9.910;2023-03-14T13:19:57;5.40;;;0.80;;
55732;SDS011;41637;52.364;9.910;2023-03-14T13:22:32;7.20;;;1.10;;
55732;SDS011;41637;52.364;9.910;2023-03-14T13:25:04;3.90;;;0.90;;
55732;SDS011;41637;52.364;9.910;2023-03-14T13:27:34;8.40;;;1.40;;
55732;SDS011;41637;52.364;9.910;2023-03-14T13:32:46;7.30;;;1.00;;
55732;SDS011;41637;52.364;9.910;2023-03-14T13:35:15;6.20;;;1.20;;
55732;SDS011;41637;52.364;9.910;2023-03-14T13:37:44;5.00;;;1.00;;
55732;SDS011;41637;52.364;9.910;2023-03-14T13:40:18;5.40;;;1.10;;
55732;SDS011;41637;52.364;9.910;2023-03-14T13:42:46;6.40;;;1.10;;
55732;SDS011;41637;52.364;9.910;2023-03-14T13:45:14;5.10;;;0.80;;
55732;SDS011;41637;52.364;9.910;2023-03-14T13:47:44;5.50;;;1.50;;
55732;SDS011;41637;52.364;9.910;2023-03-14T13:50:15;6.80;;;1.20;;
55732;SDS011;41637;52.364;9.910;2023-03-14T13:52:45;7.20;;;1.10;;
55732;SDS011;41637;52.364;9.910;2023-03-14T13:55:17;6.10;;;1.30;;
55732;SDS011;41637;52.364;9.910;2023-03-14T13:57:45;4.90;;;0.90;;
55732;SDS011;41637;52.364;9.910;2023-03-14T14:00:18;5.80;;;1.00;;
55732;SDS011;41637;52.364;9.910;2023-03-14T14:02:46;9.40;;;1.30;;
55732;SDS011;41637;52.364;9.910;2023-03-14T14:05:14;5.00;;;1.20;;
55732;SDS011;41637;52.364;9.910;2023-03-14T14:07:42;7.00;;;1.60;;
55732;SDS011;41637;52.364;9.910;2023-03-14T14:10:11;6.20;;;1.20;;
55732;SDS011;41637;52.364;9.910;2023-03-14T14:12:42;5.50;;;1.40;;
55732;SDS011;41637;52.364;9.910;2023-03-14T14:15:17;7.80;;;2.00;;
55732;SDS011;41637;52.364;9.910;2023-03-14T14:20:46;7.10;;;1.50;;
55732;SDS011;41637;52.364;9.910;2023-03-14T14:23:24;5.40;;;1.50;;
55732;SDS011;41637;52.364;9.910;2023-03-14T14:25:55;8.10;;;1.80;;
55732;SDS011;41637;52.364;9.910;2023-03-14T14:28:25;9.50;;;1.90;;
55732;SDS011;41637;52.364;9.910;2023-03-14T14:38:57;9.40;;;1.80;;
55732;SDS011;41637;52.364;9.910;2023-03-14T14:41:34;8.50;;;1.70;;
55732;SDS011;41637;52.364;9.910;2023-03-14T14:44:06;8.10;;;1.90;;
55732;SDS011;41637;52.364;9.910;2023-03-14T14:46:34;8.30;;;2.00;;
55732;SDS011;41637;52.364;9.910;2023-03-14T14:49:09;11.70;;;2.10;;
55732;SDS011;41637;52.364;9.910;2023-03-14T14:51:41;11.30;;;2.00;;
55732;SDS011;41637;52.364;9.910;2023-03-14T14:54:32;9.30;;;2.10;;
55732;SDS011;41637;52.364;9.910;2023-03-14T14:57:04;13.60;;;2.10;;
55732;SDS011;41637;52.364;9.910;2023-03-14T14:59:32;10.50;;;2.10;;
55732;SDS011;41637;52.364;9.910;2023-03-14T15:02:31;6.70;;;1.80;;
55732;SDS011;41637;52.364;9.910;2023-03-14T15:05:22;11.80;;;1.80;;
55732;SDS011;41637;52.364;9.910;2023-03-14T15:07:50;5.90;;;1.60;;
55732;SDS011;41637;52.364;9.910;2023-03-14T15:10:18;7.80;;;1.80;;
55732;SDS011;41637;52.364;9.910;2023-03-14T15:12:47;8.20;;;1.70;;
55732;SDS011;41637;52.364;9.910;2023-03-14T15:15:16;9.50;;;2.10;;
55732;SDS011;41637;52.364;9.910;2023-03-14T15:17:43;8.60;;;1.90;;
55732;SDS011;41637;52.364;9.910;2023-03-14T15:20:12;8.50;;;1.60;;
55732;SDS011;41637;52.364;9.910;2023-03-14T15:22:40;11.70;;;1.70;;
55732;SDS011;41637;52.364;9.910;2023-03-14T15:25:08;9.10;;;1.90;;
55732;SDS011;41637;52.364;9.910;2023-03-14T15:27:51;6.40;;;1.40;;
55732;SDS011;41637;52.364;9.910;2023-03-14T15:30:18;6.80;;;1.40;;
55732;SDS011;41637;52.364;9.910;2023-03-14T15:32:45;9.80;;;1.90;;
55732;SDS011;41637;52.364;9.910;2023-03-14T15:35:12;10.10;;;2.40;;
55732;SDS011;41637;52.364;9.910;2023-03-14T15:37:43;9.50;;;2.10;;
55732;SDS011;41637;52.364;9.910;2023-03-14T15:40:11;8.70;;;2.00;;
55732;SDS011;41637;52.364;9.910;2023-03-14T15:42:40;8.00;;;1.90;;
55732;SDS011;41637;52.364;9.910;2023-03-14T15:45:08;7.60;;;1.60;;
55732;SDS011;41637;52.364;9.910;2023-03-14T15:47:35;11.50;;;2.10;;
55732;SDS011;41637;52.364;9.910;2023-03-14T15:50:02;12.00;;;1.90;;
55732;SDS011;41637;52.364;9.910;2023-03-14T15:52:29;8.30;;;1.50;;
55732;SDS011;41637;52.364;9.910;2023-03-14T15:54:56;13.90;;;2.10;;
55732;SDS011;41637;52.364;9.910;2023-03-14T15:57:22;11.90;;;2.00;;
55732;SDS011;41637;52.364;9.910;2023-03-14T15:59:49;6.30;;;1.80;;
55732;SDS011;41637;52.364;9.910;2023-03-14T16:02:16;10.20;;;2.00;;
55732;SDS011;41637;52.364;9.910;2023-03-14T16:04:43;11.80;;;1.70;;
55732;SDS011;41637;52.364;9.910;2023-03-14T16:07:09;6.50;;;1.80;;
55732;SDS011;41637;52.364;9.910;2023-03-14T16:09:36;6.50;;;1.40;;
55732;SDS011;41637;52.364;9.910;2023-03-14T16:12:03;8.90;;;1.70;;
55732;SDS011;41637;52.364;9.910;2023-03-14T16:14:31;7.60;;;1.20;;
55732;SDS011;41637;52.364;9.910;2023-03-14T16:16:57;7.40;;;1.30;;
55732;SDS011;41637;52.364;9.910;2023-03-14T16:19:25;6.20;;;1.20;;
55732;SDS011;41637;52.364;9.910;2023-03-14T16:21:52;6.50;;;1.20;;